Marfa, TX (79843)

11:18 PM CST on February 09, 2016 (GMT -0600)
MesoWest | | Change Station
CLOSE
Current Station
Personal Weather Station
Location: Marfa, TX
Elevation: 4886 ft
Nearby Weather Stations

Elev 4886 ft 30.35 °N, 104.13 °W | Updated 1 hour ago

Mostly Cloudy
Mostly Cloudy
43.0 °F
Feels Like 39 °F
N
6.0
Wind Variable Wind from East
Gusts 6.0 mph

Today
High -- | Low -- °F
--% Chance of Precip.
Yesterday
High -- | Low -- °F
Precip. -- in
Pressure 30.39 in
Visibility 10.0 miles
Clouds Clear
Windchill 39 °F
Dew Point Not available.
Humidity Not available.
Rainfall in
Snow Depth Not available.
7:41 AM 6:39 PM
Waxing Crescent, 4% visible
METAR KMRF 100456Z AUTO 33007KT 10SM CLR M01/M10 A3040 RMK AO2 SLP289 T10111100 FZRANO
Pressure 30.39 in
Visibility 10.0 miles
Clouds Clear
Windchill 39 °F
Dew Point Not available.
Humidity Not available.
Rainfall in
Snow Depth Not available.
7:41 AM 6:39 PM
Waxing Crescent, 4% visible
METAR KMRF 100456Z AUTO 33007KT 10SM CLR M01/M10 A3040 RMK AO2 SLP289 T10111100 FZRANO

10-Day Weather Forecast

Almanac

Astronomy

Feb. 09, 2016 Rise Set
Actual Time
Civil Twilight
Nautical Twilight
Astronomical Twilight
Moon
Length of Visible Light
Length of Day
Tomorrow will be .
, % of the Moon is Illuminated

Today's Extremes

State Highs State Lows

Community

WunderPhotos

Upload Photos

1,891,818 photos uploaded!

WunderBlog® & News

Nearby

Air Quality

  Air Quality AQ Index Pollutant
Not available.

Snow Depth

Station Depth Elevation

Earthquake Activity

City Distance Mag. Time & Date
Minimum magnitude displayed is 2.5.

Coastal Water Temperatures

Place Temperature

Stations

Nearby Weather Stations

Station Location Temp. Windchill Dew Point Humidity Wind Precip. Elev Updated Type
                   

Watches & Warnings

There are currently no watches in effect.